createdAt,value
2023-02-21T07:47:15.059Z,99057.00
2023-02-21T07:49:42.470Z,99063.78
2023-02-21T07:52:09.764Z,99070.66
2023-02-21T07:54:37.075Z,99060.22
2023-02-21T07:57:04.954Z,99062.19
2023-02-21T07:59:32.423Z,99063.72
2023-02-21T08:01:59.783Z,99055.69
2023-02-21T08:04:27.163Z,99052.16
2023-02-21T08:07:01.596Z,99063.94
2023-02-21T08:09:28.906Z,99052.84
2023-02-21T08:11:56.199Z,99054.97
2023-02-21T08:14:23.543Z,99054.50
2023-02-21T08:16:50.994Z,99043.25
2023-02-21T08:19:18.343Z,99057.59
2023-02-21T08:21:50.090Z,99042.78
2023-02-21T08:24:19.164Z,99056.47
2023-02-21T08:26:46.938Z,99054.69
2023-02-21T08:29:18.028Z,99053.91
2023-02-21T08:31:45.554Z,99039.53
2023-02-21T08:34:14.259Z,99046.94
2023-02-21T08:36:44.098Z,99044.97
2023-02-21T08:39:12.126Z,99037.22
2023-02-21T08:41:45.040Z,99038.31
2023-02-21T08:44:16.896Z,99041.09
2023-02-21T08:46:45.194Z,99032.28
2023-02-21T08:49:12.486Z,99035.69
2023-02-21T08:51:40.332Z,99032.41
2023-02-21T08:54:08.438Z,99030.28
2023-02-21T08:56:35.823Z,99034.75
2023-02-21T08:59:04.539Z,99028.00
2023-02-21T09:01:36.151Z,99030.25
2023-02-21T09:04:06.641Z,99027.50
2023-02-21T09:06:34.097Z,99026.88
2023-02-21T09:09:01.415Z,99020.28
2023-02-21T09:11:29.414Z,99020.69
2023-02-21T09:13:56.714Z,99012.50
2023-02-21T09:16:24.159Z,99012.44
2023-02-21T09:19:01.335Z,99012.78
2023-02-21T09:21:29.220Z,99003.19
2023-02-21T09:23:59.271Z,99001.84
2023-02-21T09:26:27.112Z,99006.34
2023-02-21T09:28:54.473Z,98997.31
2023-02-21T09:31:22.178Z,99007.06
2023-02-21T09:33:49.478Z,99000.72
2023-02-21T09:36:17.169Z,98992.28
2023-02-21T09:38:44.501Z,98992.00
2023-02-21T09:41:14.639Z,98983.47
2023-02-21T09:43:48.545Z,98987.22
2023-02-21T09:46:50.687Z,98980.94
2023-02-21T09:49:42.049Z,98967.78
2023-02-21T09:52:41.213Z,98976.00
2023-02-21T09:55:39.713Z,98962.53
2023-02-21T09:58:19.934Z,98967.47
2023-02-21T10:00:47.614Z,98964.03
2023-02-21T10:03:49.325Z,98965.06
2023-02-21T10:06:53.098Z,98967.66
2023-02-21T10:10:02.243Z,98965.63
2023-02-21T10:13:18.685Z,98965.41
2023-02-21T10:16:15.943Z,98960.94
2023-02-21T10:19:13.215Z,98960.66
2023-02-21T10:21:49.499Z,98949.31
2023-02-21T10:24:25.722Z,98946.09
2023-02-21T10:27:17.011Z,98942.63
2023-02-21T10:30:19.166Z,98945.72
2023-02-21T10:32:46.586Z,98944.13
2023-02-21T10:35:14.071Z,98942.91
2023-02-21T10:38:07.806Z,98939.09
2023-02-21T10:40:59.524Z,98933.06
2023-02-21T10:43:35.686Z,98922.09
2023-02-21T10:46:30.824Z,98918.50
2023-02-21T10:49:28.944Z,98922.91
2023-02-21T10:52:48.750Z,98916.31
2023-02-21T10:55:32.623Z,98906.31
2023-02-21T10:58:18.759Z,98909.00
2023-02-21T11:00:48.290Z,98906.56
2023-02-21T11:03:27.511Z,98897.00
2023-02-21T11:05:58.130Z,98905.34
2023-02-21T11:08:42.389Z,98904.22
2023-02-21T11:11:11.717Z,98884.88
2023-02-21T11:13:39.246Z,98884.84
2023-02-21T11:16:24.682Z,98879.72
2023-02-21T11:19:07.927Z,98864.59
2023-02-21T11:21:35.279Z,98856.22
2023-02-21T11:24:08.143Z,98852.56
2023-02-21T11:26:52.021Z,98849.34
2023-02-21T11:29:25.890Z,98839.03
2023-02-21T11:31:56.912Z,98834.50
2023-02-21T11:34:30.168Z,98816.06
2023-02-21T11:37:04.610Z,98819.38
2023-02-21T11:39:34.589Z,98814.78
2023-02-21T11:42:32.944Z,98812.16
2023-02-21T11:45:29.609Z,98808.06
2023-02-21T11:48:15.852Z,98804.97
2023-02-21T11:50:53.482Z,98798.00
2023-02-21T11:53:42.394Z,98790.22
2023-02-21T11:57:14.415Z,98786.91
2023-02-21T12:00:47.114Z,98783.56
2023-02-21T12:04:15.361Z,98774.28
2023-02-21T12:07:30.337Z,98764.16
2023-02-21T12:10:41.429Z,98759.03
2023-02-21T12:14:04.210Z,98753.00
2023-02-21T12:16:56.327Z,98739.66
2023-02-21T12:20:15.369Z,98733.91
2023-02-21T12:23:55.556Z,98726.47
2023-02-21T12:27:46.513Z,98715.13
2023-02-21T12:31:11.956Z,98719.19
2023-02-21T12:34:22.736Z,98711.03
2023-02-21T12:37:33.494Z,98708.50
2023-02-21T12:40:48.568Z,98681.50
2023-02-21T12:44:08.156Z,98679.63
2023-02-21T12:47:06.648Z,98678.53
2023-02-21T12:50:21.758Z,98679.22
2023-02-21T12:53:18.027Z,98671.91
2023-02-21T12:56:19.331Z,98662.31
2023-02-21T12:59:35.103Z,98662.59
2023-02-21T13:02:50.753Z,98662.91
2023-02-21T13:05:33.927Z,98639.91
2023-02-21T13:09:06.649Z,98644.78
2023-02-21T13:12:21.382Z,98632.25
2023-02-21T13:15:13.363Z,98630.81
2023-02-21T13:17:42.673Z,98631.78
2023-02-21T13:20:22.251Z,98627.63
2023-02-21T13:23:03.187Z,98620.66
2023-02-21T13:26:04.312Z,98618.50
2023-02-21T13:28:36.704Z,98617.09
2023-02-21T13:31:17.753Z,98611.53
2023-02-21T13:33:53.101Z,98607.78
2023-02-21T13:37:06.086Z,98598.66
2023-02-21T13:39:38.781Z,98600.41
2023-02-21T13:42:19.500Z,98594.69
2023-02-21T13:45:16.031Z,98592.09
2023-02-21T13:47:59.914Z,98591.72
2023-02-21T13:50:39.522Z,98574.00
2023-02-21T13:53:24.572Z,98575.19
2023-02-21T13:56:06.423Z,98561.97
2023-02-21T13:58:49.240Z,98560.03
2023-02-21T14:01:43.645Z,98564.03
2023-02-21T14:04:57.652Z,98554.88
2023-02-21T14:07:59.016Z,98549.25
2023-02-21T14:10:55.354Z,98550.13
2023-02-21T14:13:58.909Z,98537.75
2023-02-21T14:16:59.127Z,98532.00
2023-02-21T14:19:48.830Z,98532.44
2023-02-21T14:22:32.184Z,98524.66
2023-02-21T14:25:24.773Z,98526.88
2023-02-21T14:27:53.915Z,98519.66
2023-02-21T14:30:33.779Z,98506.78
2023-02-21T14:33:26.975Z,98507.75
2023-02-21T14:36:08.254Z,98507.69
2023-02-21T14:38:44.409Z,98503.50
2023-02-21T14:41:20.888Z,98501.50
2023-02-21T14:44:25.677Z,98493.47
2023-02-21T14:47:52.096Z,98488.97
2023-02-21T14:51:06.649Z,98488.38
2023-02-21T14:54:25.960Z,98482.25
2023-02-21T14:57:48.989Z,98477.47
2023-02-21T15:00:19.163Z,98470.91
2023-02-21T15:03:07.297Z,98472.97
2023-02-21T15:06:18.332Z,98470.78
2023-02-21T15:08:50.672Z,98461.31
2023-02-21T15:11:39.892Z,98462.63
2023-02-21T15:14:29.416Z,98451.53
2023-02-21T15:17:13.153Z,98459.34
2023-02-21T15:19:40.546Z,98459.59
2023-02-21T15:22:27.999Z,98458.22
2023-02-21T15:25:10.856Z,98466.75
2023-02-21T15:27:57.561Z,98455.84
2023-02-21T15:30:41.903Z,98470.66
2023-02-21T15:33:21.333Z,98457.34
2023-02-21T15:36:02.165Z,98469.16
2023-02-21T15:39:14.192Z,98461.84
2023-02-21T15:41:50.215Z,98453.19
2023-02-21T15:44:37.570Z,98460.66
2023-02-21T15:47:26.759Z,98453.19
2023-02-21T15:50:29.366Z,98453.94
2023-02-21T15:52:56.771Z,98451.66
2023-02-21T15:55:31.123Z,98443.31
2023-02-21T15:58:26.957Z,98442.34
2023-02-21T16:01:11.306Z,98438.59
2023-02-21T16:03:43.529Z,98444.81
2023-02-21T16:06:32.309Z,98435.50
2023-02-21T16:09:34.843Z,98440.13
2023-02-21T16:12:38.210Z,98438.75
2023-02-21T16:15:19.025Z,98439.53
2023-02-21T16:18:01.537Z,98433.03
2023-02-21T16:20:40.456Z,98429.81
2023-02-21T16:23:33.986Z,98428.69
2023-02-21T16:26:09.837Z,98422.56
2023-02-21T16:28:40.957Z,98425.03
2023-02-21T16:31:26.647Z,98429.38
2023-02-21T16:33:54.018Z,98422.91
2023-02-21T16:36:30.554Z,98425.16
2023-02-21T16:38:59.458Z,98422.84
2023-02-21T16:41:27.342Z,98427.53
2023-02-21T16:43:54.656Z,98427.72
2023-02-21T16:46:30.198Z,98435.38
2023-02-21T16:48:59.011Z,98424.25
2023-02-21T16:51:33.600Z,98427.91
2023-02-21T16:54:02.479Z,98430.72
2023-02-21T16:56:30.000Z,98426.50
2023-02-21T16:58:57.620Z,98429.13
2023-02-21T17:01:32.366Z,98425.41
2023-02-21T17:04:01.596Z,98433.59
2023-02-21T17:06:29.511Z,98424.81
2023-02-21T17:08:58.799Z,98428.53
2023-02-21T17:11:27.425Z,98432.88
2023-02-21T17:13:54.722Z,98424.91
2023-02-21T17:16:22.161Z,98433.81
2023-02-21T17:18:49.530Z,98429.84
2023-02-21T17:21:17.140Z,98426.41
2023-02-21T17:23:44.717Z,98424.97
2023-02-21T17:26:13.107Z,98425.03
2023-02-21T17:28:40.521Z,98433.00
2023-02-21T17:31:07.893Z,98427.94
2023-02-21T17:33:35.684Z,98424.03
2023-02-21T17:36:03.195Z,98432.00
2023-02-21T17:38:30.504Z,98428.88
2023-02-21T17:40:58.265Z,98439.22
2023-02-21T17:43:25.588Z,98429.28
2023-02-21T17:45:52.927Z,98434.09
2023-02-21T17:48:20.264Z,98434.44
2023-02-21T17:50:47.597Z,98426.56
2023-02-21T17:53:14.938Z,98418.63
2023-02-21T17:55:43.124Z,98421.03
2023-02-21T17:58:10.553Z,98434.91
2023-02-21T18:00:39.251Z,98428.56
2023-02-21T18:03:07.579Z,98417.09
2023-02-21T18:05:37.423Z,98422.22
2023-02-21T18:08:05.641Z,98420.63
2023-02-21T18:10:32.966Z,98427.75
2023-02-21T18:13:00.241Z,98429.75
2023-02-21T18:15:28.945Z,98425.75
2023-02-21T18:18:03.915Z,98424.16
2023-02-21T18:20:32.089Z,98429.69
2023-02-21T18:22:59.597Z,98426.50
2023-02-21T18:25:27.337Z,98430.50
2023-02-21T18:27:55.120Z,98427.31
2023-02-21T18:30:23.279Z,98419.75
2023-02-21T18:32:51.063Z,98419.31
2023-02-21T18:35:18.745Z,98430.75
2023-02-21T18:37:47.246Z,98427.88
2023-02-21T18:40:18.534Z,98425.19
2023-02-21T18:42:47.754Z,98433.53
2023-02-21T18:45:15.144Z,98426.56
2023-02-21T18:47:42.470Z,98430.19
2023-02-21T18:50:10.300Z,98428.53
2023-02-21T18:52:37.579Z,98438.03
2023-02-21T18:55:06.113Z,98425.81
2023-02-21T18:57:34.250Z,98438.09
2023-02-21T19:00:01.613Z,98432.09
2023-02-21T19:02:29.101Z,98437.94
2023-02-21T19:04:56.418Z,98435.81
2023-02-21T19:07:24.302Z,98436.25
2023-02-21T19:09:51.645Z,98436.91
2023-02-21T19:12:19.335Z,98433.34
2023-02-21T19:14:46.661Z,98434.16
2023-02-21T19:17:13.997Z,98431.25
2023-02-21T19:19:41.441Z,98437.38
2023-02-21T19:22:08.894Z,98432.47
2023-02-21T19:24:36.294Z,98437.31
2023-02-21T19:27:04.024Z,98436.88
2023-02-21T19:29:31.354Z,98437.81
2023-02-21T19:31:58.811Z,98437.31
2023-02-21T19:34:26.307Z,98442.41
2023-02-21T19:36:53.710Z,98440.94
2023-02-21T19:39:21.046Z,98443.25
2023-02-21T19:41:48.503Z,98449.50
2023-02-21T19:44:16.074Z,98446.88
2023-02-21T19:46:43.648Z,98453.94
2023-02-21T19:49:18.094Z,98451.06
2023-02-21T19:51:50.397Z,98449.41
2023-02-21T19:54:25.125Z,98451.13
2023-02-21T19:56:52.515Z,98458.94
2023-02-21T19:59:19.813Z,98450.53
2023-02-21T20:01:47.188Z,98461.41
2023-02-21T20:04:16.873Z,98455.78
2023-02-21T20:06:46.192Z,98464.69
2023-02-21T20:09:13.952Z,98465.41
2023-02-21T20:11:41.363Z,98474.81
2023-02-21T20:14:11.277Z,98473.41
2023-02-21T20:16:43.920Z,98465.91
2023-02-21T20:19:13.654Z,98486.59
2023-02-21T20:21:41.434Z,98473.91
2023-02-21T20:24:10.253Z,98479.09
2023-02-21T20:26:38.902Z,98477.56
2023-02-21T20:29:07.032Z,98488.66
2023-02-21T20:31:37.380Z,98493.09
2023-02-21T20:34:06.844Z,98486.63
2023-02-21T20:36:39.231Z,98489.59
2023-02-21T20:39:19.772Z,98495.25
2023-02-21T20:41:47.347Z,98488.47
2023-02-21T20:44:15.361Z,98491.31
2023-02-21T20:46:42.730Z,98492.19
2023-02-21T20:49:14.170Z,98493.97
2023-02-21T20:51:44.068Z,98492.34
2023-02-21T20:54:20.155Z,98487.91
2023-02-21T20:56:56.779Z,98488.09
2023-02-21T20:59:38.881Z,98481.31
2023-02-21T21:02:08.294Z,98490.31
2023-02-21T21:04:43.292Z,98488.03
2023-02-21T21:07:22.362Z,98480.31
2023-02-21T21:09:50.868Z,98495.81
2023-02-21T21:12:23.502Z,98496.19
2023-02-21T21:14:55.521Z,98490.41
2023-02-21T21:17:22.899Z,98493.81
2023-02-21T21:19:51.047Z,98496.97
2023-02-21T21:22:27.207Z,98492.78
2023-02-21T21:24:55.530Z,98490.81
2023-02-21T21:27:23.900Z,98491.69
2023-02-21T21:29:53.724Z,98486.78
2023-02-21T21:32:24.590Z,98485.44
2023-02-21T21:34:56.753Z,98486.50
2023-02-21T21:37:29.307Z,98484.34
2023-02-21T21:39:57.259Z,98478.34
2023-02-21T21:42:29.233Z,98486.41
2023-02-21T21:44:57.659Z,98484.78
2023-02-21T21:47:32.108Z,98483.88
2023-02-21T21:50:02.356Z,98484.34
2023-02-21T21:52:29.946Z,98473.00
2023-02-21T21:54:58.247Z,98481.78
2023-02-21T21:57:28.447Z,98483.50
2023-02-21T21:59:56.162Z,98477.84
2023-02-21T22:02:23.517Z,98481.75
2023-02-21T22:04:53.352Z,98480.34
2023-02-21T22:07:20.889Z,98476.09
2023-02-21T22:09:48.153Z,98472.19
2023-02-21T22:12:20.963Z,98468.84
2023-02-21T22:14:49.953Z,98485.59
2023-02-21T22:17:17.320Z,98482.25
2023-02-21T22:19:45.358Z,98475.47
2023-02-21T22:22:13.681Z,98470.44
2023-02-21T22:24:40.997Z,98482.75
2023-02-21T22:27:08.307Z,98479.91
2023-02-21T22:29:35.929Z,98475.47
2023-02-21T22:32:03.291Z,98465.97
2023-02-21T22:34:30.623Z,98472.91
2023-02-21T22:36:58.573Z,98460.31
2023-02-21T22:39:27.132Z,98468.50
2023-02-21T22:41:54.794Z,98469.56
2023-02-21T22:44:25.031Z,98464.84
2023-02-21T22:46:59.753Z,98459.94
2023-02-21T22:49:28.780Z,98451.31
2023-02-21T22:51:57.654Z,98456.88
2023-02-21T22:54:26.751Z,98450.38
2023-02-21T22:56:59.768Z,98452.44
2023-02-21T22:59:27.237Z,98454.34
2023-02-21T23:01:58.309Z,98448.91
2023-02-21T23:04:26.352Z,98439.41
2023-02-21T23:06:58.251Z,98439.56
2023-02-21T23:09:30.157Z,98440.28
2023-02-21T23:12:00.571Z,98435.94
2023-02-21T23:14:34.954Z,98425.50
2023-02-21T23:17:03.329Z,98435.47
2023-02-21T23:19:32.167Z,98442.16
2023-02-21T23:22:00.032Z,98442.34
2023-02-21T23:24:28.303Z,98443.13
2023-02-21T23:26:55.757Z,98437.84
2023-02-21T23:29:26.161Z,98437.69
2023-02-21T23:32:09.267Z,98438.81
2023-02-21T23:34:40.649Z,98441.19
2023-02-21T23:37:12.420Z,98437.25
2023-02-21T23:39:41.877Z,98440.53
2023-02-21T23:42:11.007Z,98434.16
2023-02-21T23:44:40.021Z,98436.56
2023-02-21T23:47:07.420Z,98436.91
2023-02-21T23:49:34.753Z,98433.44
2023-02-21T23:52:02.172Z,98435.38
2023-02-21T23:54:29.642Z,98438.25
2023-02-21T23:57:00.659Z,98435.59
2023-02-21T23:59:28.809Z,98433.19
